Terminal Aerodrome Forecast
Issued by NWS

Home | Current Version | Previous Version | Text Only | Print | Product List | Glossary On
Versions: 1 2 3 4 5 6 7 8 9 10 11 12 13
000
FTUS44 KMAF 301120
TAFFST
TAF
KFST 301120Z 3012/0112 14011KT P6SM SCT150
      TEMPO 3012/3015 VRB10G30KT 4SM TSRA BKN050CB
     FM301700 13011G20KT P6SM FEW250=

USA.gov is the U.S. government's official web portal to all federal, state and local government web resources and services.